createdAt,value
2022-09-21T00:01:10.484Z,11.02
2022-09-21T00:03:38.262Z,10.88
2022-09-21T00:06:25.297Z,11.05
2022-09-21T00:08:52.918Z,10.90
2022-09-21T00:11:23.853Z,10.93
2022-09-21T00:14:04.349Z,10.85
2022-09-21T00:16:32.063Z,10.76
2022-09-21T00:18:59.152Z,10.79
2022-09-21T00:21:25.877Z,10.82
2022-09-21T00:23:52.516Z,10.94
2022-09-21T00:26:22.074Z,10.98
2022-09-21T00:28:55.888Z,10.90
2022-09-21T00:31:22.838Z,11.02
2022-09-21T00:33:51.014Z,11.07
2022-09-21T00:36:19.715Z,11.05
2022-09-21T00:38:53.612Z,10.86
2022-09-21T00:41:20.803Z,10.36
2022-09-21T00:44:08.494Z,10.35
2022-09-21T00:46:38.959Z,10.30
2022-09-21T00:49:05.761Z,10.57
2022-09-21T00:51:32.517Z,10.45
2022-09-21T00:54:05.145Z,10.59
2022-09-21T00:56:31.735Z,10.11
2022-09-21T00:58:58.549Z,10.41
2022-09-21T01:01:25.267Z,10.37
2022-09-21T01:03:55.472Z,10.16
2022-09-21T01:06:22.616Z,10.14
2022-09-21T01:08:55.817Z,10.26
2022-09-21T01:11:51.527Z,10.48
2022-09-21T01:14:34.610Z,10.33
2022-09-21T01:17:36.264Z,10.45
2022-09-21T01:20:35.171Z,10.38
2022-09-21T01:23:39.483Z,10.24
2022-09-21T01:26:08.704Z,10.30
2022-09-21T01:29:11.736Z,10.40
2022-09-21T01:31:44.683Z,10.62
2022-09-21T01:34:18.540Z,10.40
2022-09-21T01:36:48.938Z,10.25
2022-09-21T01:39:19.016Z,10.20
2022-09-21T01:41:47.714Z,10.22
2022-09-21T01:44:22.084Z,10.41
2022-09-21T01:46:49.024Z,10.50
2022-09-21T01:49:23.819Z,10.62
2022-09-21T01:51:57.253Z,10.63
2022-09-21T01:54:49.211Z,10.24
2022-09-21T01:57:26.042Z,9.86
2022-09-21T01:59:58.392Z,9.82
2022-09-21T02:02:29.298Z,9.73
2022-09-21T02:04:56.163Z,9.60
2022-09-21T02:07:22.943Z,9.92
2022-09-21T02:09:49.709Z,10.09
2022-09-21T02:12:19.179Z,10.14
2022-09-21T02:14:46.514Z,10.25
2022-09-21T02:17:41.193Z,9.78
2022-09-21T02:20:19.803Z,9.89
2022-09-21T02:23:34.136Z,9.80
2022-09-21T02:26:09.559Z,9.77
2022-09-21T02:28:51.142Z,9.74
2022-09-21T02:31:28.192Z,9.89
2022-09-21T02:34:10.176Z,9.95
2022-09-21T02:36:50.452Z,10.15
2022-09-21T02:39:36.735Z,10.35
2022-09-21T02:42:28.313Z,10.52
2022-09-21T02:45:32.836Z,9.93
2022-09-21T02:48:10.973Z,9.87
2022-09-21T02:50:59.525Z,10.10
2022-09-21T02:53:30.645Z,10.12
2022-09-21T02:56:03.815Z,10.17
2022-09-21T02:58:32.065Z,10.14
2022-09-21T03:00:59.386Z,10.12
2022-09-21T03:03:26.210Z,10.02
2022-09-21T03:05:55.171Z,10.04
2022-09-21T03:08:22.328Z,10.10
2022-09-21T03:10:49.999Z,10.05
2022-09-21T03:13:17.718Z,9.83
2022-09-21T03:15:45.482Z,9.65
2022-09-21T03:18:12.633Z,9.85
2022-09-21T03:20:45.206Z,9.96
2022-09-21T03:23:12.799Z,9.96
2022-09-21T03:25:39.528Z,9.97
2022-09-21T03:28:06.213Z,10.02
2022-09-21T03:30:32.711Z,10.07
2022-09-21T03:32:59.382Z,10.05
2022-09-21T03:35:26.610Z,9.90
2022-09-21T03:37:55.267Z,9.92
2022-09-21T03:40:23.561Z,9.75
2022-09-21T03:42:50.409Z,9.64
2022-09-21T03:45:16.890Z,9.64
2022-09-21T03:47:43.556Z,9.66
2022-09-21T03:50:10.785Z,9.66
2022-09-21T03:52:38.443Z,9.70
2022-09-21T03:55:07.069Z,9.86
2022-09-21T03:57:34.344Z,9.95
2022-09-21T04:00:03.691Z,9.90
2022-09-21T04:02:31.917Z,9.78
2022-09-21T04:04:58.719Z,9.73
2022-09-21T04:07:26.192Z,9.75
2022-09-21T04:09:53.508Z,9.88
2022-09-21T04:12:23.361Z,9.89
2022-09-21T04:14:49.986Z,9.87
2022-09-21T04:17:17.009Z,9.84
2022-09-21T04:19:45.400Z,9.80
2022-09-21T04:22:15.333Z,9.81
2022-09-21T04:24:41.923Z,9.77
2022-09-21T04:27:09.320Z,9.86
2022-09-21T04:29:36.428Z,9.74
2022-09-21T04:32:03.531Z,9.70
2022-09-21T04:34:31.156Z,9.64
2022-09-21T04:36:58.556Z,9.58
2022-09-21T04:39:26.130Z,9.62
2022-09-21T04:41:52.744Z,9.68
2022-09-21T04:44:19.381Z,9.57
2022-09-21T04:46:46.513Z,9.35
2022-09-21T04:49:13.113Z,9.31
2022-09-21T04:51:39.600Z,9.12
2022-09-21T04:54:06.608Z,9.08
2022-09-21T04:56:33.828Z,8.97
2022-09-21T04:59:00.478Z,9.06
2022-09-21T05:01:27.781Z,9.24
2022-09-21T05:03:54.614Z,9.36
2022-09-21T05:06:21.181Z,9.41
2022-09-21T05:09:06.463Z,9.47
2022-09-21T05:11:33.447Z,9.57
2022-09-21T05:13:59.925Z,9.55
2022-09-21T05:16:26.552Z,9.50
2022-09-21T05:18:55.104Z,9.50
2022-09-21T05:21:22.170Z,9.48
2022-09-21T05:23:48.802Z,9.43
2022-09-21T05:26:15.576Z,9.38
2022-09-21T05:28:42.488Z,9.36
2022-09-21T05:31:19.320Z,9.42
2022-09-21T05:33:54.445Z,9.28
2022-09-21T05:36:53.526Z,9.41
2022-09-21T05:39:20.639Z,9.18
2022-09-21T05:41:47.468Z,9.15
2022-09-21T05:44:14.986Z,9.28
2022-09-21T05:46:52.709Z,9.41
2022-09-21T05:49:51.939Z,9.50
2022-09-21T05:52:30.103Z,9.51
2022-09-21T05:55:15.029Z,9.52
2022-09-21T05:58:01.641Z,9.57
2022-09-21T06:00:41.941Z,9.27
2022-09-21T06:03:21.699Z,9.21
2022-09-21T06:05:48.283Z,9.19
2022-09-21T06:08:14.800Z,9.37
2022-09-21T06:10:41.488Z,9.41
2022-09-21T06:13:08.200Z,9.45
2022-09-21T06:15:38.547Z,9.54
2022-09-21T06:18:06.126Z,9.51
2022-09-21T06:20:33.091Z,9.57
2022-09-21T06:23:08.980Z,9.55
2022-09-21T06:25:35.751Z,9.47
2022-09-21T06:28:04.770Z,9.45
2022-09-21T06:30:34.368Z,9.49
2022-09-21T06:33:02.210Z,9.57
2022-09-21T06:35:29.732Z,9.68
2022-09-21T06:38:00.658Z,9.78
2022-09-21T06:40:29.115Z,9.75
2022-09-21T06:43:00.831Z,9.86
2022-09-21T06:45:28.984Z,9.92
2022-09-21T06:47:56.026Z,9.96
2022-09-21T06:50:23.023Z,10.04
2022-09-21T06:52:49.810Z,10.14
2022-09-21T06:55:16.729Z,10.31
2022-09-21T06:57:43.631Z,10.37
2022-09-21T07:00:12.437Z,10.22
2022-09-21T07:02:42.862Z,10.35
2022-09-21T07:05:09.662Z,10.39
2022-09-21T07:07:36.378Z,10.49
2022-09-21T07:10:05.838Z,10.63
2022-09-21T07:12:34.542Z,10.72
2022-09-21T07:15:02.903Z,10.77
2022-09-21T07:17:37.958Z,10.77
2022-09-21T07:20:06.526Z,10.85
2022-09-21T07:22:33.518Z,11.05
2022-09-21T07:25:00.250Z,11.10
2022-09-21T07:27:29.540Z,11.32
2022-09-21T07:29:59.208Z,11.54
2022-09-21T07:32:26.035Z,11.62
2022-09-21T07:34:56.307Z,11.76
2022-09-21T07:37:24.569Z,11.87
2022-09-21T07:39:52.761Z,11.92
2022-09-21T07:42:21.412Z,12.01
2022-09-21T07:44:48.541Z,12.07
2022-09-21T07:47:15.784Z,12.18
2022-09-21T07:49:42.658Z,12.14
2022-09-21T07:52:11.171Z,12.10
2022-09-21T07:54:38.365Z,12.23
2022-09-21T07:57:23.749Z,12.45
2022-09-21T07:59:50.615Z,12.51
2022-09-21T08:02:17.203Z,12.59
2022-09-21T08:04:43.976Z,12.65
2022-09-21T08:07:11.188Z,12.74
2022-09-21T08:09:37.773Z,12.79
2022-09-21T08:12:04.250Z,12.77
2022-09-21T08:14:30.815Z,12.77
2022-09-21T08:16:57.310Z,12.90
2022-09-21T08:19:26.539Z,12.97
2022-09-21T08:21:57.661Z,12.89
2022-09-21T08:24:26.739Z,12.95
2022-09-21T08:26:55.668Z,13.02
2022-09-21T08:29:23.173Z,13.14
2022-09-21T08:31:49.751Z,13.16
2022-09-21T08:34:16.587Z,13.25
2022-09-21T08:36:43.820Z,13.31
2022-09-21T08:39:10.478Z,13.37
2022-09-21T08:41:58.247Z,13.37
2022-09-21T08:44:48.245Z,13.37
2022-09-21T08:47:43.600Z,13.54
2022-09-21T08:50:22.471Z,13.66
2022-09-21T08:52:57.300Z,13.74
2022-09-21T08:55:24.735Z,13.71
2022-09-21T08:57:51.291Z,13.71
2022-09-21T09:00:19.693Z,13.63
2022-09-21T09:02:55.331Z,13.65
2022-09-21T09:05:35.052Z,13.81
2022-09-21T09:08:23.168Z,14.04
2022-09-21T09:11:02.356Z,14.14
2022-09-21T09:13:47.416Z,14.30
2022-09-21T09:16:22.506Z,14.66
2022-09-21T09:18:55.210Z,14.91
2022-09-21T09:21:32.634Z,15.13
2022-09-21T09:24:11.739Z,15.54
2022-09-21T09:27:09.230Z,15.81
2022-09-21T09:29:54.108Z,15.98
2022-09-21T09:32:30.060Z,16.57
2022-09-21T09:35:25.962Z,16.89
2022-09-21T09:37:57.340Z,16.86
2022-09-21T09:40:43.279Z,17.10
2022-09-21T09:43:27.239Z,17.47
2022-09-21T09:46:45.279Z,17.26
2022-09-21T09:49:44.045Z,17.51
2022-09-21T09:52:14.137Z,17.52
2022-09-21T09:54:40.942Z,17.58
2022-09-21T09:57:09.223Z,17.83
2022-09-21T09:59:39.693Z,17.96
2022-09-21T10:02:18.298Z,18.23
2022-09-21T10:05:09.282Z,18.24
2022-09-21T10:07:38.889Z,18.51
2022-09-21T10:10:34.909Z,18.76
2022-09-21T10:13:14.185Z,19.08
2022-09-21T10:15:49.814Z,19.08
2022-09-21T10:18:23.099Z,19.08
2022-09-21T10:21:15.652Z,19.22
2022-09-21T10:23:51.686Z,19.55
2022-09-21T10:26:19.743Z,19.42
2022-09-21T10:29:00.325Z,19.24
2022-09-21T10:31:29.955Z,19.21
2022-09-21T10:34:02.565Z,19.05
2022-09-21T10:36:35.246Z,18.78
2022-09-21T10:39:29.411Z,18.40
2022-09-21T10:42:14.308Z,18.04
2022-09-21T10:44:43.542Z,17.65
2022-09-21T10:47:36.353Z,17.47
2022-09-21T10:50:19.777Z,17.33
2022-09-21T10:52:47.424Z,17.06
2022-09-21T10:55:21.584Z,17.00
2022-09-21T10:57:50.945Z,17.00
2022-09-21T11:00:35.357Z,17.10
2022-09-21T11:03:32.033Z,17.11
2022-09-21T11:06:09.604Z,17.16
2022-09-21T11:08:49.158Z,17.04
2022-09-21T11:11:37.342Z,17.12
2022-09-21T11:14:41.531Z,17.14
2022-09-21T11:17:16.815Z,16.96
2022-09-21T11:19:56.031Z,16.92
2022-09-21T11:22:38.468Z,16.81
2022-09-21T11:25:23.352Z,16.66
2022-09-21T11:27:56.889Z,16.72
2022-09-21T11:30:24.408Z,16.88
2022-09-21T11:33:04.937Z,16.91
2022-09-21T11:35:47.288Z,16.92
2022-09-21T11:38:43.135Z,17.01
2022-09-21T11:41:22.240Z,16.88
2022-09-21T11:44:09.831Z,16.81
2022-09-21T11:46:56.642Z,16.73
2022-09-21T11:49:49.208Z,16.75
2022-09-21T11:53:12.229Z,16.57
2022-09-21T11:55:50.052Z,16.45
2022-09-21T11:58:26.072Z,16.40
2022-09-21T12:01:03.548Z,16.39
2022-09-21T12:03:49.054Z,16.28
2022-09-21T12:06:30.693Z,16.39
2022-09-21T12:09:15.600Z,16.32
2022-09-21T12:11:49.264Z,16.48
2022-09-21T12:14:25.213Z,16.39
2022-09-21T12:17:05.718Z,16.29
2022-09-21T12:19:45.421Z,16.24
2022-09-21T12:22:33.469Z,16.18
2022-09-21T12:25:16.940Z,16.35
2022-09-21T12:27:51.948Z,16.54
2022-09-21T12:30:23.934Z,16.52
2022-09-21T12:32:59.633Z,16.57
2022-09-21T12:35:48.726Z,16.58
2022-09-21T12:38:18.541Z,16.65
2022-09-21T12:40:58.109Z,16.46
2022-09-21T12:43:41.417Z,16.73
2022-09-21T12:46:10.940Z,16.73
2022-09-21T12:48:39.501Z,16.98
2022-09-21T12:51:24.859Z,17.10
2022-09-21T12:53:59.041Z,17.07
2022-09-21T12:56:40.461Z,16.83
2022-09-21T12:59:50.605Z,16.89
2022-09-21T13:02:24.591Z,16.81
2022-09-21T13:05:19.316Z,16.98
2022-09-21T13:08:16.033Z,16.83
2022-09-21T13:10:45.548Z,16.82
2022-09-21T13:13:30.517Z,16.88
2022-09-21T13:15:59.229Z,16.76
2022-09-21T13:18:36.243Z,16.72
2022-09-21T13:21:26.465Z,16.69
2022-09-21T13:24:01.332Z,16.63
2022-09-21T13:26:41.533Z,16.54
2022-09-21T13:29:17.046Z,16.21
2022-09-21T13:32:03.707Z,16.00
2022-09-21T13:34:35.158Z,15.91
2022-09-21T13:37:14.400Z,15.88
2022-09-21T13:40:02.462Z,16.18
2022-09-21T13:42:32.094Z,16.21
2022-09-21T13:45:18.835Z,16.26
2022-09-21T13:47:49.177Z,16.39
2022-09-21T13:50:41.631Z,16.43
2022-09-21T13:53:22.668Z,16.50
2022-09-21T13:55:55.537Z,16.68
2022-09-21T13:58:36.400Z,16.80
2022-09-21T14:01:29.247Z,16.81
2022-09-21T14:04:02.647Z,16.78
2022-09-21T14:06:35.840Z,16.76
2022-09-21T14:09:06.478Z,16.74
2022-09-21T14:11:40.447Z,16.90
2022-09-21T14:14:18.260Z,16.99
2022-09-21T14:16:45.509Z,16.98
2022-09-21T14:19:33.086Z,17.01
2022-09-21T14:22:04.209Z,17.04
2022-09-21T14:24:38.600Z,17.21
2022-09-21T14:27:48.336Z,17.41
2022-09-21T14:30:24.546Z,17.27
2022-09-21T14:33:00.786Z,17.18
2022-09-21T14:35:37.642Z,17.36
2022-09-21T14:38:22.664Z,17.39
2022-09-21T14:40:51.807Z,17.35
2022-09-21T14:43:28.223Z,17.37
2022-09-21T14:46:25.474Z,17.48
2022-09-21T14:49:04.356Z,17.37
2022-09-21T14:51:39.837Z,17.28
2022-09-21T14:54:17.428Z,17.33
2022-09-21T14:57:02.585Z,17.24
2022-09-21T14:59:50.427Z,17.29
2022-09-21T15:02:24.073Z,17.32
2022-09-21T15:05:02.943Z,17.49
2022-09-21T15:08:05.871Z,17.26
2022-09-21T15:10:57.590Z,17.12
2022-09-21T15:13:49.452Z,17.30
2022-09-21T15:16:35.547Z,17.33
2022-09-21T15:19:11.756Z,17.46
2022-09-21T15:21:43.470Z,17.35
2022-09-21T15:24:18.822Z,17.35
2022-09-21T15:26:47.137Z,17.49
2022-09-21T15:29:24.501Z,17.49
2022-09-21T15:31:51.701Z,17.41
2022-09-21T15:34:18.638Z,17.31
2022-09-21T15:36:48.617Z,17.22
2022-09-21T15:39:27.592Z,17.35
2022-09-21T15:42:09.384Z,17.52
2022-09-21T15:44:38.384Z,17.53
2022-09-21T15:47:12.578Z,17.35
2022-09-21T15:49:40.209Z,17.53
2022-09-21T15:52:27.621Z,17.53
2022-09-21T15:54:58.821Z,17.43
2022-09-21T15:57:30.902Z,17.25
2022-09-21T15:59:57.719Z,17.35
2022-09-21T16:02:27.951Z,17.35
2022-09-21T16:04:54.953Z,17.49
2022-09-21T16:07:35.857Z,17.53
2022-09-21T16:10:24.028Z,17.27
2022-09-21T16:12:50.971Z,17.48
2022-09-21T16:15:23.789Z,17.61
2022-09-21T16:18:01.248Z,17.48
2022-09-21T16:20:38.686Z,17.58
2022-09-21T16:23:13.704Z,17.56
2022-09-21T16:25:40.804Z,17.21
2022-09-21T16:28:28.782Z,16.86
2022-09-21T16:30:56.662Z,16.80
2022-09-21T16:33:34.260Z,16.67
2022-09-21T16:36:02.543Z,16.62
2022-09-21T16:38:30.175Z,16.72
2022-09-21T16:40:56.873Z,16.92
2022-09-21T16:43:24.191Z,16.97
2022-09-21T16:45:51.179Z,16.94
2022-09-21T16:48:18.762Z,16.86
2022-09-21T16:50:46.303Z,16.87
2022-09-21T16:53:13.054Z,16.85
2022-09-21T16:55:42.862Z,16.83
2022-09-21T16:58:09.925Z,16.79
2022-09-21T17:00:40.358Z,16.67
2022-09-21T17:03:07.014Z,16.63
2022-09-21T17:05:33.504Z,16.58
2022-09-21T17:08:00.202Z,16.43
2022-09-21T17:10:30.420Z,16.24
2022-09-21T17:12:58.055Z,16.10
2022-09-21T17:15:25.452Z,16.01
2022-09-21T17:17:52.175Z,15.95
2022-09-21T17:20:26.568Z,15.88
2022-09-21T17:22:53.195Z,15.84
2022-09-21T17:25:19.655Z,15.78
2022-09-21T17:27:46.215Z,15.70
2022-09-21T17:30:15.536Z,15.61
2022-09-21T17:32:47.589Z,15.58
2022-09-21T17:35:20.260Z,15.55
2022-09-21T17:37:46.994Z,15.54
2022-09-21T17:40:14.516Z,15.45
2022-09-21T17:42:48.439Z,15.40
2022-09-21T17:45:28.308Z,15.35
2022-09-21T17:47:55.207Z,15.30
2022-09-21T17:50:27.819Z,15.31
2022-09-21T17:53:14.114Z,15.27
2022-09-21T17:55:54.345Z,15.18
2022-09-21T17:58:37.666Z,15.09
2022-09-21T18:01:04.262Z,15.07
2022-09-21T18:03:36.351Z,15.02
2022-09-21T18:06:03.481Z,14.99
2022-09-21T18:08:33.802Z,15.02
2022-09-21T18:11:00.290Z,14.93
2022-09-21T18:13:32.924Z,14.88
2022-09-21T18:16:23.038Z,14.83
2022-09-21T18:18:53.123Z,14.77
2022-09-21T18:21:22.400Z,14.73
2022-09-21T18:24:13.503Z,14.73
2022-09-21T18:26:41.170Z,14.73
2022-09-21T18:29:38.818Z,14.71
2022-09-21T18:32:39.539Z,14.69
2022-09-21T18:35:11.911Z,14.64
2022-09-21T18:37:57.750Z,14.57
2022-09-21T18:40:55.420Z,14.64
2022-09-21T18:44:10.421Z,14.60
2022-09-21T18:47:01.711Z,14.44
2022-09-21T18:49:50.009Z,14.43
2022-09-21T18:52:28.705Z,14.37
2022-09-21T18:54:55.511Z,14.38
2022-09-21T18:57:23.395Z,14.30
2022-09-21T18:59:50.328Z,14.34
2022-09-21T19:02:20.254Z,14.24
2022-09-21T19:04:48.497Z,14.21
2022-09-21T19:07:15.014Z,14.25
2022-09-21T19:09:51.943Z,14.23
2022-09-21T19:12:47.108Z,14.24
2022-09-21T19:15:48.619Z,14.29
2022-09-21T19:18:26.635Z,14.21
2022-09-21T19:21:54.538Z,14.16
2022-09-21T19:24:36.311Z,14.17
2022-09-21T19:27:33.448Z,14.20
2022-09-21T19:30:05.723Z,14.16
2022-09-21T19:32:46.024Z,14.11
2022-09-21T19:35:18.949Z,14.01
2022-09-21T19:37:47.120Z,14.03
2022-09-21T19:40:19.205Z,13.99
2022-09-21T19:42:50.340Z,13.96
2022-09-21T19:45:26.705Z,13.91
2022-09-21T19:47:58.774Z,13.89
2022-09-21T19:50:41.053Z,13.90
2022-09-21T19:53:29.897Z,13.83
2022-09-21T19:56:16.588Z,13.73
2022-09-21T19:59:02.379Z,13.79
2022-09-21T20:01:31.185Z,13.79
2022-09-21T20:03:58.117Z,13.73
2022-09-21T20:06:38.835Z,13.71
2022-09-21T20:09:42.055Z,13.76
2022-09-21T20:12:28.089Z,13.69
2022-09-21T20:15:15.680Z,13.69
2022-09-21T20:17:51.472Z,13.72
2022-09-21T20:20:28.960Z,13.66
2022-09-21T20:22:56.121Z,13.67
2022-09-21T20:25:37.489Z,13.66
2022-09-21T20:28:04.575Z,13.59
2022-09-21T20:30:34.518Z,13.52
2022-09-21T20:33:06.670Z,13.64
2022-09-21T20:35:34.619Z,13.27
2022-09-21T20:38:02.852Z,13.05
2022-09-21T20:40:31.772Z,13.20
2022-09-21T20:43:00.819Z,13.33
2022-09-21T20:45:27.533Z,13.24
2022-09-21T20:47:55.257Z,13.27
2022-09-21T20:50:23.524Z,13.29
2022-09-21T20:52:50.064Z,13.19
2022-09-21T20:55:20.073Z,13.17
2022-09-21T20:57:46.647Z,13.16
2022-09-21T21:00:14.934Z,13.15
2022-09-21T21:02:42.123Z,13.16
2022-09-21T21:05:10.282Z,13.08
2022-09-21T21:07:37.322Z,13.01
2022-09-21T21:10:04.417Z,13.09
2022-09-21T21:12:31.092Z,13.09
2022-09-21T21:14:58.999Z,13.03
2022-09-21T21:17:26.096Z,13.06
2022-09-21T21:19:52.585Z,13.04
2022-09-21T21:22:19.171Z,13.01
2022-09-21T21:24:45.748Z,12.93
2022-09-21T21:27:21.174Z,12.93
2022-09-21T21:29:50.187Z,12.89
2022-09-21T21:32:18.493Z,12.72
2022-09-21T21:34:45.440Z,12.82
2022-09-21T21:37:13.390Z,12.83
2022-09-21T21:39:40.122Z,12.85
2022-09-21T21:42:06.827Z,12.77
2022-09-21T21:44:33.418Z,12.60
2022-09-21T21:47:15.136Z,12.56
2022-09-21T21:49:46.723Z,12.58
2022-09-21T21:52:13.282Z,12.67
2022-09-21T21:54:39.928Z,12.59
2022-09-21T21:57:06.462Z,12.58
2022-09-21T21:59:33.090Z,12.56
2022-09-21T22:01:59.684Z,12.54
2022-09-21T22:04:27.941Z,12.58
2022-09-21T22:06:54.691Z,12.44
2022-09-21T22:09:22.072Z,12.44
2022-09-21T22:11:48.945Z,12.45
2022-09-21T22:14:15.591Z,12.44
2022-09-21T22:16:42.154Z,12.41
2022-09-21T22:19:09.564Z,12.39
2022-09-21T22:21:42.144Z,12.35
2022-09-21T22:24:09.658Z,12.36
2022-09-21T22:26:40.431Z,12.30
2022-09-21T22:29:09.426Z,12.28
2022-09-21T22:31:39.801Z,12.30
2022-09-21T22:34:07.620Z,12.30
2022-09-21T22:36:35.961Z,12.22
2022-09-21T22:39:03.980Z,12.29
2022-09-21T22:41:33.502Z,12.20
2022-09-21T22:44:00.213Z,12.17
2022-09-21T22:46:28.935Z,12.22
2022-09-21T22:48:55.559Z,12.18
2022-09-21T22:51:22.793Z,12.21
2022-09-21T22:53:50.693Z,12.20
2022-09-21T22:56:20.140Z,12.17
2022-09-21T22:58:49.493Z,12.17
2022-09-21T23:01:19.302Z,12.14
2022-09-21T23:03:48.246Z,12.09
2022-09-21T23:06:17.694Z,12.05
2022-09-21T23:08:49.066Z,12.03
2022-09-21T23:11:19.504Z,12.01
2022-09-21T23:13:46.595Z,12.01
2022-09-21T23:16:15.309Z,12.01
2022-09-21T23:18:43.444Z,11.99
2022-09-21T23:21:16.470Z,11.80
2022-09-21T23:23:44.126Z,11.93
2022-09-21T23:26:18.951Z,11.99
2022-09-21T23:28:50.888Z,11.73
2022-09-21T23:31:18.079Z,11.74
2022-09-21T23:33:47.439Z,11.75
2022-09-21T23:36:16.393Z,11.77
2022-09-21T23:38:43.589Z,11.76
2022-09-21T23:41:18.070Z,11.73
2022-09-21T23:43:45.509Z,11.70
2022-09-21T23:46:14.592Z,11.67
2022-09-21T23:48:42.367Z,11.53
2022-09-21T23:51:09.543Z,11.57
2022-09-21T23:53:37.225Z,11.61
2022-09-21T23:56:04.921Z,11.41
2022-09-21T23:58:32.169Z,11.19
